Time;durP1;ratioP1;P1;durP2;ratioP2;P2;SDS_P1;SDS_P2;PMS_P1;PMS_P2;Temp;Humidity;BMP_temperature;BMP_pressure;BME280_temperature;BME280_humidity;BME280_pressure;Samples;Min_cycle;Max_cycle;Signal;HPM_P1;HPM_P2
2023/01/21 00:01:07;;;;;;;34.97;24.95;;;;;;;1.47;100.00;102574.13;10115461;28;20677;-70
2023/01/21 00:06:04;;;;;;;34.10;27.98;;;;;;;1.23;100.00;102585.56;10131457;28;20051;-70
2023/01/21 00:11:13;;;;;;;33.83;29.88;;;;;;;1.05;100.00;102587.03;10114936;28;20075;-69
2023/01/21 00:16:10;;;;;;;35.75;30.35;;;;;;;0.91;100.00;102590.78;10164653;28;20041;-69
2023/01/21 00:21:07;;;;;;;38.85;34.72;;;;;;;0.65;100.00;102596.13;10194543;28;20535;-70
2023/01/21 00:26:05;;;;;;;40.97;36.70;;;;;;;0.61;100.00;102607.31;10164340;28;20078;-70
2023/01/21 00:31:04;;;;;;;43.85;36.85;;;;;;;0.54;100.00;102606.47;10176169;28;20114;-69
2023/01/21 00:36:04;;;;;;;41.67;37.08;;;;;;;0.50;100.00;102610.59;10161014;28;20046;-70
2023/01/21 00:41:03;;;;;;;41.60;37.40;;;;;;;0.52;100.00;102630.06;10165524;28;20788;-69
2023/01/21 00:45:59;;;;;;;47.78;42.95;;;;;;;0.51;100.00;102641.88;10149578;28;20050;-70
2023/01/21 00:50:59;;;;;;;43.28;38.85;;;;;;;0.61;100.00;102647.69;10133208;28;20046;-69
2023/01/21 00:56:00;;;;;;;43.95;39.47;;;;;;;0.95;100.00;102656.66;10160757;28;20557;-70
2023/01/21 01:01:04;;;;;;;44.20;35.67;;;;;;;1.14;100.00;102659.56;10144839;28;20167;-70
2023/01/21 01:06:03;;;;;;;39.38;34.92;;;;;;;1.16;100.00;102662.88;10157415;28;20050;-70
2023/01/21 01:11:00;;;;;;;39.72;33.00;;;;;;;1.28;100.00;102674.72;10153014;28;20532;-70
2023/01/21 01:15:57;;;;;;;38.30;32.05;;;;;;;1.38;100.00;102683.19;10151911;28;20054;-69
2023/01/21 01:20:54;;;;;;;41.35;31.75;;;;;;;1.21;100.00;102681.97;10153328;28;20050;-70
2023/01/21 01:26:02;;;;;;;36.88;32.08;;;;;;;1.33;100.00;102679.47;10171718;28;20129;-70
2023/01/21 01:30:59;;;;;;;34.67;31.05;;;;;;;1.09;100.00;102689.00;10166501;28;20077;-70
2023/01/21 01:36:00;;;;;;;40.65;33.30;;;;;;;1.10;100.00;102693.34;10159543;28;20050;-69
2023/01/21 01:40:57;;;;;;;38.22;34.17;;;;;;;1.01;100.00;102704.31;10189849;28;20084;-70
2023/01/21 01:45:53;;;;;;;42.63;35.25;;;;;;;1.19;100.00;102705.59;10162388;28;20050;-69
2023/01/21 01:50:50;;;;;;;38.88;34.67;;;;;;;1.31;100.00;102719.28;10187836;28;20667;-70
2023/01/21 01:55:48;;;;;;;35.47;31.65;;;;;;;1.25;100.00;102726.31;10163889;28;20046;-70
2023/01/21 02:00:44;;;;;;;34.92;29.35;;;;;;;1.14;100.00;102735.00;10158789;28;20072;-70
2023/01/21 02:05:42;;;;;;;38.17;29.83;;;;;;;1.33;100.00;102739.59;10145652;28;20042;-70
2023/01/21 02:10:39;;;;;;;35.88;32.00;;;;;;;1.41;100.00;102742.06;10133755;28;20049;-70
2023/01/21 02:15:47;;;;;;;35.47;31.13;;;;;;;1.34;100.00;102746.63;10157459;28;20049;-69
2023/01/21 02:21:20;;;;;;;35.08;30.45;;;;;;;1.42;100.00;102749.13;10118556;28;20043;-70
2023/01/21 02:26:38;;;;;;;36.20;29.40;;;;;;;1.38;100.00;102742.50;10135429;28;20074;-69
2023/01/21 02:31:37;;;;;;;36.33;30.15;;;;;;;1.41;100.00;102744.78;10117169;28;20393;-70
2023/01/21 02:36:55;;;;;;;33.28;29.20;;;;;;;1.54;100.00;102751.22;10167127;28;20050;-69
2023/01/21 02:42:03;;;;;;;34.15;30.45;;;;;;;1.49;100.00;102754.53;10154657;28;20039;-70
2023/01/21 02:47:10;;;;;;;32.00;27.95;;;;;;;1.55;100.00;102752.88;10155787;28;20138;-70
2023/01/21 02:52:07;;;;;;;33.58;28.05;;;;;;;1.37;100.00;102762.41;10137529;28;20061;-69
2023/01/21 02:57:13;;;;;;;34.95;29.10;;;;;;;1.40;100.00;102767.38;10187928;28;20508;-70
2023/01/21 03:02:25;;;;;;;31.00;26.38;;;;;;;1.35;100.00;102775.25;10154201;28;20085;-70
2023/01/21 03:07:26;;;;;;;32.55;26.30;;;;;;;1.44;100.00;102774.03;10148944;28;20485;-70
2023/01/21 03:13:04;;;;;;;34.45;26.70;;;;;;;1.38;100.00;102779.41;10117319;28;20054;-71
2023/01/21 03:18:39;;;;;;;36.45;29.77;;;;;;;1.47;100.00;102783.56;10145441;28;20649;-70
2023/01/21 03:23:38;;;;;;;35.83;28.70;;;;;;;1.46;100.00;102782.75;10154378;28;20579;-70
2023/01/21 03:28:42;;;;;;;35.80;28.13;;;;;;;1.42;100.00;102786.88;10116053;28;20039;-70
2023/01/21 03:33:42;;;;;;;33.17;28.75;;;;;;;1.35;100.00;102791.44;10118819;28;20125;-69
2023/01/21 03:38:49;;;;;;;33.25;28.27;;;;;;;1.39;100.00;102802.63;10115752;28;20509;-70
2023/01/21 03:43:46;;;;;;;41.75;33.10;;;;;;;1.59;100.00;102808.88;10138974;28;20054;-70
2023/01/21 03:48:52;;;;;;;40.30;32.97;;;;;;;1.30;100.00;102815.47;10194963;28;20125;-70
2023/01/21 03:53:55;;;;;;;47.35;33.85;;;;;;;1.53;100.00;102815.06;10174187;28;20052;-70
2023/01/21 03:58:52;;;;;;;37.13;32.88;;;;;;;1.64;100.00;102814.47;10147791;28;20101;-70
2023/01/21 04:03:48;;;;;;;44.35;35.75;;;;;;;1.42;100.00;102813.84;10159857;28;20129;-70
2023/01/21 04:08:45;;;;;;;49.65;40.20;;;;;;;1.37;100.00;102821.72;10166676;28;20056;-70
2023/01/21 04:13:41;;;;;;;40.40;34.63;;;;;;;1.53;100.00;102825.84;10140363;28;20052;-70
2023/01/21 04:18:38;;;;;;;45.45;37.33;;;;;;;1.65;100.00;102828.81;10182610;28;20039;-70
2023/01/21 04:23:34;;;;;;;45.65;37.25;;;;;;;1.53;100.00;102835.81;10158437;28;20511;-70
2023/01/21 04:28:31;;;;;;;54.10;40.13;;;;;;;1.46;100.00;102841.19;10169968;28;20053;-70
2023/01/21 04:33:28;;;;;;;51.03;40.20;;;;;;;1.65;100.00;102845.00;10153640;28;20463;-70
2023/01/21 04:38:24;;;;;;;46.67;37.50;;;;;;;1.63;100.00;102847.88;10151876;28;20042;-70
2023/01/21 04:43:21;;;;;;;47.58;38.30;;;;;;;1.56;100.00;102840.81;10155962;28;20064;-70
2023/01/21 04:48:17;;;;;;;49.25;38.72;;;;;;;1.46;100.00;102847.44;10118236;28;20055;-70
2023/01/21 04:53:14;;;;;;;52.22;38.75;;;;;;;1.58;100.00;102849.50;10117132;28;20109;-69
2023/01/21 04:58:10;;;;;;;50.88;38.70;;;;;;;1.47;100.00;102859.88;10159560;28;20038;-69
2023/01/21 05:03:06;;;;;;;59.97;43.17;;;;;;;1.53;100.00;102863.59;10151545;28;20424;-69
2023/01/21 05:08:03;;;;;;;58.05;42.30;;;;;;;1.43;100.00;102877.50;10144140;28;20051;-69
2023/01/21 05:12:59;;;;;;;58.50;42.33;;;;;;;1.42;100.00;102878.53;10113976;28;20055;-70
2023/01/21 05:17:56;;;;;;;51.85;41.42;;;;;;;1.56;100.00;102890.19;10143932;28;20053;-70
2023/01/21 05:22:52;;;;;;;46.05;37.55;;;;;;;1.63;100.00;102901.81;10157049;28;20078;-69
2023/01/21 05:27:53;;;;;;;48.53;39.28;;;;;;;1.49;100.00;102907.38;10163379;28;20050;-70
2023/01/21 05:32:50;;;;;;;55.83;39.65;;;;;;;1.45;100.00;102915.88;10155572;28;20074;-70
2023/01/21 05:37:47;;;;;;;48.20;40.50;;;;;;;1.61;100.00;102921.94;10196563;28;20121;-70
2023/01/21 05:42:45;;;;;;;56.22;42.17;;;;;;;1.55;100.00;102936.22;10158798;28;20053;-70
2023/01/21 05:47:42;;;;;;;49.05;37.88;;;;;;;1.56;100.00;102930.63;10194700;28;20060;-69
2023/01/21 05:52:38;;;;;;;53.97;40.38;;;;;;;1.60;100.00;102942.69;10121164;28;20133;-70
2023/01/21 05:57:35;;;;;;;53.65;41.75;;;;;;;1.44;100.00;102946.56;10192377;28;20042;-69
2023/01/21 06:02:31;;;;;;;49.90;39.58;;;;;;;1.54;100.00;102956.13;10119705;28;20576;-69
2023/01/21 06:07:28;;;;;;;51.05;41.40;;;;;;;1.44;100.00;102960.03;10177273;28;20051;-69
2023/01/21 06:12:24;;;;;;;64.07;44.75;;;;;;;1.39;100.00;102965.22;10119319;28;20504;-69
2023/01/21 06:17:21;;;;;;;54.22;40.60;;;;;;;1.37;100.00;102983.44;10165523;28;20050;-69
2023/01/21 06:22:17;;;;;;;62.20;43.40;;;;;;;1.30;100.00;102982.59;10155532;28;20042;-70
2023/01/21 06:27:14;;;;;;;57.20;41.72;;;;;;;1.26;100.00;102992.09;10142252;28;20054;-70
2023/01/21 06:32:10;;;;;;;52.50;39.55;;;;;;;1.34;100.00;102994.59;10116906;28;20134;-69
2023/01/21 06:37:06;;;;;;;56.08;39.95;;;;;;;1.41;100.00;103011.66;10150524;28;20052;-70
2023/01/21 06:42:03;;;;;;;51.20;39.72;;;;;;;1.34;100.00;103010.78;10157742;28;20729;-69
2023/01/21 06:46:59;;;;;;;47.70;36.53;;;;;;;1.25;100.00;103011.97;10183734;28;20074;-69
2023/01/21 06:51:57;;;;;;;49.78;36.78;;;;;;;1.38;100.00;103012.06;10193710;28;20041;-70
2023/01/21 06:56:53;;;;;;;47.50;36.65;;;;;;;1.39;100.00;103013.75;10179226;28;20042;-70
2023/01/21 07:01:50;;;;;;;49.05;36.78;;;;;;;1.29;100.00;103023.22;10170919;28;20042;-69
2023/01/21 07:06:46;;;;;;;52.47;38.53;;;;;;;1.33;100.00;103022.63;10177486;28;20118;-70
2023/01/21 07:11:43;;;;;;;51.38;39.75;;;;;;;1.27;100.00;103031.47;10135829;28;20509;-70
2023/01/21 07:16:39;;;;;;;51.40;39.28;;;;;;;1.09;100.00;103039.25;10174322;28;20080;-70
2023/01/21 07:21:36;;;;;;;50.60;38.75;;;;;;;1.16;100.00;103045.50;10130778;28;20047;-70
2023/01/21 07:26:36;;;;;;;48.85;39.40;;;;;;;1.10;100.00;103067.88;10163791;28;20047;-70
2023/01/21 07:31:33;;;;;;;46.58;36.42;;;;;;;1.03;100.00;103078.59;10116310;28;20065;-70
2023/01/21 07:36:29;;;;;;;62.63;42.10;;;;;;;0.92;100.00;103082.66;10136721;28;20085;-69
2023/01/21 07:41:26;;;;;;;53.88;40.58;;;;;;;1.00;100.00;103082.53;10115378;28;20042;-69
2023/01/21 07:46:22;;;;;;;57.42;40.13;;;;;;;1.16;100.00;103077.84;10169424;28;20065;-69
2023/01/21 07:51:19;;;;;;;46.30;38.38;;;;;;;1.27;100.00;103097.00;10159009;28;20608;-69
2023/01/21 07:56:17;;;;;;;54.15;37.72;;;;;;;1.17;100.00;103090.31;10166797;28;20121;-70
2023/01/21 08:01:13;;;;;;;51.88;39.38;;;;;;;1.01;100.00;103092.25;10168771;28;20047;-69
2023/01/21 08:06:10;;;;;;;49.15;39.15;;;;;;;1.25;100.00;103100.91;10164622;28;20053;-70
2023/01/21 08:11:07;;;;;;;59.03;40.90;;;;;;;1.13;100.00;103097.09;10158946;28;20050;-69
2023/01/21 08:16:03;;;;;;;51.92;39.28;;;;;;;1.05;100.00;103109.69;10162904;28;20148;-69
2023/01/21 08:21:00;;;;;;;48.80;37.63;;;;;;;1.33;100.00;103111.56;10123915;28;20093;-70
2023/01/21 08:26:01;;;;;;;52.47;38.72;;;;;;;1.29;100.00;103109.47;10141686;28;20143;-70
2023/01/21 08:31:23;;;;;;;46.05;38.40;;;;;;;1.35;100.00;103120.28;10114451;28;20063;-70
2023/01/21 08:36:20;;;;;;;45.67;34.58;;;;;;;1.42;100.00;103131.94;10133847;28;20057;-69
2023/01/21 08:41:17;;;;;;;56.33;38.78;;;;;;;1.38;100.00;103136.06;10152176;28;20409;-70
2023/01/21 08:46:13;;;;;;;45.38;35.55;;;;;;;1.42;100.00;103137.34;10136192;28;20508;-69
2023/01/21 08:51:10;;;;;;;47.63;36.38;;;;;;;1.45;100.00;103142.31;10113600;28;20047;-69
2023/01/21 08:56:06;;;;;;;57.97;39.25;;;;;;;1.39;100.00;103148.53;10167603;28;20565;-69
2023/01/21 09:01:10;;;;;;;54.22;39.88;;;;;;;1.60;100.00;103171.03;10199675;28;20535;-69
2023/01/21 09:06:07;;;;;;;56.50;40.47;;;;;;;1.54;100.00;103177.25;10170462;28;20092;-69
2023/01/21 09:11:05;;;;;;;48.15;37.13;;;;;;;1.57;100.00;103193.00;10170039;28;20149;-69
2023/01/21 09:16:06;;;;;;;51.83;39.83;;;;;;;1.61;100.00;103194.28;10168956;28;20088;-70
2023/01/21 09:21:04;;;;;;;49.63;37.10;;;;;;;1.51;100.00;103193.78;10156134;28;20046;-69
2023/01/21 09:26:13;;;;;;;57.50;39.13;;;;;;;1.31;100.00;103202.56;10159979;28;20507;-69
2023/01/21 09:31:13;;;;;;;52.80;38.08;;;;;;;1.44;100.00;103209.94;10146370;28;20458;-69
2023/01/21 09:36:15;;;;;;;54.08;37.42;;;;;;;1.43;100.00;103217.19;10155791;28;20047;-69
2023/01/21 09:41:28;;;;;;;52.30;37.95;;;;;;;1.57;100.00;103217.28;10120614;28;20051;-69
2023/01/21 09:46:35;;;;;;;55.13;37.40;;;;;;;1.60;100.00;103236.63;10122284;28;20047;-69
2023/01/21 09:51:48;;;;;;;50.75;33.83;;;;;;;1.95;100.00;103233.09;10119893;28;20043;-69
2023/01/21 09:56:59;;;;;;;45.60;34.72;;;;;;;2.03;100.00;103232.94;10179744;28;20046;-69
2023/01/21 10:01:59;;;;;;;54.20;37.53;;;;;;;2.09;100.00;103240.25;10199276;28;20062;-69
2023/01/21 10:07:02;;;;;;;49.17;34.28;;;;;;;2.28;100.00;103249.50;10192902;28;20483;-70
2023/01/21 10:12:14;;;;;;;49.15;33.50;;;;;;;2.06;100.00;103244.16;10170310;28;20050;-69
2023/01/21 10:17:13;;;;;;;43.13;32.33;;;;;;;2.30;100.00;103242.84;10155484;28;20043;-69
2023/01/21 10:22:28;;;;;;;35.15;29.10;;;;;;;2.41;100.00;103246.84;10128746;28;20405;-70
2023/01/21 10:27:27;;;;;;;45.25;31.35;;;;;;;2.37;100.00;103247.44;10188385;28;20053;-69
2023/01/21 10:32:26;;;;;;;41.00;28.23;;;;;;;2.22;100.00;103240.31;10118861;28;20050;-69
2023/01/21 10:37:41;;;;;;;41.40;30.75;;;;;;;2.42;100.00;103235.00;10172223;28;20104;-69
2023/01/21 10:42:51;;;;;;;38.63;27.40;;;;;;;2.44;100.00;103237.53;10158190;28;20096;-70
2023/01/21 10:48:16;;;;;;;36.05;27.15;;;;;;;2.71;100.00;103209.53;10147650;28;20082;-69
2023/01/21 10:53:19;;;;;;;34.25;25.33;;;;;;;2.52;100.00;103207.63;10120618;28;20512;-70
2023/01/21 10:58:34;;;;;;;31.45;25.25;;;;;;;2.85;100.00;103206.88;10129435;28;20079;-69
2023/01/21 11:03:37;;;;;;;38.03;25.98;;;;;;;2.50;100.00;103209.69;10124582;28;20052;-69
2023/01/21 11:08:34;;;;;;;35.83;24.17;;;;;;;2.66;100.00;103208.50;10196353;28;20133;-69
2023/01/21 11:13:34;;;;;;;29.08;20.65;;;;;;;2.77;100.00;103194.41;10181661;28;20148;-69
2023/01/21 11:18:41;;;;;;;28.20;20.10;;;;;;;2.81;100.00;103184.84;10195078;28;20417;-69
2023/01/21 11:23:38;;;;;;;26.35;18.58;;;;;;;2.90;100.00;103193.56;10142009;28;20117;-70
2023/01/21 11:28:34;;;;;;;26.00;18.58;;;;;;;2.94;100.00;103184.03;10195477;28;20508;-70
2023/01/21 11:33:31;;;;;;;25.05;16.98;;;;;;;2.84;100.00;103183.59;10135849;28;20472;-69
2023/01/21 11:38:27;;;;;;;25.30;18.08;;;;;;;3.11;100.00;103177.19;10186594;28;20421;-69
2023/01/21 11:43:38;;;;;;;27.73;19.23;;;;;;;3.02;100.00;103170.31;10121218;28;20464;-69
2023/01/21 11:48:35;;;;;;;21.88;16.05;;;;;;;2.85;100.00;103166.34;10159742;28;20051;-69
2023/01/21 11:53:31;;;;;;;25.15;15.27;;;;;;;3.04;100.00;103168.25;10123250;28;20054;-69
2023/01/21 11:58:32;;;;;;;22.65;16.08;;;;;;;3.28;100.00;103152.44;10129039;28;20050;-69
2023/01/21 12:03:33;;;;;;;21.65;15.15;;;;;;;3.25;100.00;103150.13;10116127;28;20076;-69
2023/01/21 12:08:33;;;;;;;19.90;15.98;;;;;;;3.31;100.00;103142.03;10114551;28;20540;-69
2023/01/21 12:13:40;;;;;;;24.63;16.33;;;;;;;3.14;100.00;103141.63;10122089;28;20084;-69
2023/01/21 12:18:55;;;;;;;24.45;17.17;;;;;;;2.99;100.00;103141.00;10206057;28;20136;-69
2023/01/21 12:24:25;;;;;;;24.95;17.63;;;;;;;3.26;100.00;103132.88;10213249;28;20084;-69
2023/01/21 12:29:43;;;;;;;25.88;18.55;;;;;;;3.33;100.00;103131.00;10233505;28;20049;-69
2023/01/21 12:35:02;;;;;;;24.25;19.10;;;;;;;3.89;100.00;103133.16;10180400;28;20483;-69
2023/01/21 12:40:02;;;;;;;29.58;20.92;;;;;;;4.75;100.00;103126.44;10219374;28;20564;-69
2023/01/21 12:45:23;;;;;;;25.52;18.00;;;;;;;4.02;100.00;103115.22;10185120;28;20069;-69
2023/01/21 12:50:34;;;;;;;25.40;18.15;;;;;;;4.04;100.00;103124.78;10201834;28;20054;-70
2023/01/21 12:55:33;;;;;;;28.55;17.52;;;;;;;3.48;100.00;103130.75;10192679;28;20438;-70
2023/01/21 13:00:37;;;;;;;24.83;18.80;;;;;;;3.21;100.00;103130.00;10166418;28;20073;-69
2023/01/21 13:05:53;;;;;;;21.70;15.40;;;;;;;4.92;100.00;103125.91;10176347;28;20556;-69
2023/01/21 13:10:58;;;;;;;25.08;17.50;;;;;;;5.60;100.00;103128.63;10153633;28;20467;-69
2023/01/21 13:16:02;;;;;;;24.92;16.15;;;;;;;5.56;100.00;103132.81;10159330;28;20046;-69
2023/01/21 13:21:07;;;;;;;19.27;15.05;;;;;;;5.34;100.00;103118.88;10152011;28;20050;-69
2023/01/21 13:26:45;;;;;;;19.05;13.48;;;;;;;5.11;100.00;103130.34;10189966;28;20042;-69
2023/01/21 13:32:09;;;;;;;17.17;12.75;;;;;;;4.55;100.00;103131.16;10152969;28;20109;-69
2023/01/21 13:37:47;;;;;;;19.92;14.55;;;;;;;3.95;100.00;103132.31;10204508;28;20069;-69
2023/01/21 13:42:58;;;;;;;16.65;12.70;;;;;;;3.77;100.00;103134.88;10186950;28;20427;-71
2023/01/21 13:48:21;;;;;;;17.70;13.07;;;;;;;3.86;100.00;103141.72;10239309;28;20129;-69
2023/01/21 13:53:48;;;;;;;14.98;12.95;;;;;;;3.85;100.00;103142.75;10200043;28;20054;-71
2023/01/21 13:58:49;;;;;;;17.38;12.75;;;;;;;3.63;100.00;103144.06;10204432;28;20169;-71
2023/01/21 14:03:57;;;;;;;17.58;13.13;;;;;;;3.44;100.00;103152.00;10170337;28;20401;-71
2023/01/21 14:09:10;;;;;;;15.95;13.10;;;;;;;3.41;100.00;103157.81;10179806;28;20104;-71
2023/01/21 14:14:27;;;;;;;19.00;14.68;;;;;;;3.41;100.00;103157.00;10184387;28;20038;-71
2023/01/21 14:19:24;;;;;;;18.30;14.45;;;;;;;3.47;100.00;103162.41;10158491;28;20552;-71
2023/01/21 14:24:29;;;;;;;18.95;14.75;;;;;;;3.46;100.00;103168.88;10172514;28;20916;-71
2023/01/21 14:29:34;;;;;;;22.90;15.93;;;;;;;3.33;100.00;103168.88;10158082;28;20057;-71
2023/01/21 14:34:40;;;;;;;19.63;14.95;;;;;;;3.39;100.00;103176.16;10181463;28;20491;-71
2023/01/21 14:40:05;;;;;;;17.50;14.27;;;;;;;3.35;100.00;103159.50;10235722;28;20469;-71
2023/01/21 14:45:04;;;;;;;15.65;13.38;;;;;;;3.26;100.00;103168.03;10188348;28;20053;-71
2023/01/21 14:50:00;;;;;;;14.52;12.07;;;;;;;2.97;100.00;103178.22;10220984;28;20602;-71
2023/01/21 14:54:58;;;;;;;13.32;11.93;;;;;;;2.82;100.00;103177.56;10236475;28;20049;-71
2023/01/21 15:00:09;;;;;;;15.20;13.63;;;;;;;2.67;100.00;103189.41;10172051;28;20049;-71
2023/01/21 15:05:26;;;;;;;17.70;14.02;;;;;;;2.44;100.00;103194.31;10187733;28;20069;-71
2023/01/21 15:10:34;;;;;;;14.07;12.68;;;;;;;2.47;100.00;103193.91;10187389;28;20048;-71
2023/01/21 15:15:35;;;;;;;14.02;12.70;;;;;;;2.33;100.00;103203.00;10196371;28;20045;-71
2023/01/21 15:20:41;;;;;;;15.95;13.63;;;;;;;2.22;100.00;103207.09;10157037;28;20053;-71
2023/01/21 15:26:10;;;;;;;15.10;13.60;;;;;;;1.97;100.00;103204.06;10193084;28;20045;-71
2023/01/21 15:31:19;;;;;;;13.55;12.25;;;;;;;1.99;100.00;103208.22;10155944;28;20093;-71
2023/01/21 15:36:26;;;;;;;13.13;11.70;;;;;;;1.97;100.00;103212.16;10166370;28;20042;-71
2023/01/21 15:41:52;;;;;;;14.75;13.23;;;;;;;1.89;100.00;103219.38;10155769;28;20065;-71
2023/01/21 15:47:10;;;;;;;14.15;12.82;;;;;;;1.75;100.00;103217.63;10231436;28;20061;-71
2023/01/21 15:52:23;;;;;;;15.52;14.10;;;;;;;1.47;100.00;103214.94;10225344;28;20065;-71
2023/01/21 15:57:47;;;;;;;16.20;14.70;;;;;;;1.53;100.00;103224.91;10239407;28;20053;-72
2023/01/21 16:02:58;;;;;;;15.32;14.13;;;;;;;1.47;100.00;103228.41;10180074;28;20046;-72
2023/01/21 16:08:27;;;;;;;18.90;17.35;;;;;;;1.31;100.00;103232.22;10233656;28;20057;-72
2023/01/21 16:13:52;;;;;;;18.73;17.02;;;;;;;1.45;100.00;103230.47;10170675;28;20045;-72
2023/01/21 16:19:09;;;;;;;19.13;17.52;;;;;;;1.34;100.00;103242.59;10221729;28;20050;-72
2023/01/21 16:24:15;;;;;;;17.50;15.98;;;;;;;1.42;100.00;103244.34;10192876;28;20095;-72
2023/01/21 16:29:13;;;;;;;18.65;17.05;;;;;;;1.64;100.00;103251.34;10165315;28;20046;-72
2023/01/21 16:34:10;;;;;;;15.75;14.25;;;;;;;1.71;100.00;103254.09;10171716;28;20107;-72
2023/01/21 16:39:08;;;;;;;15.45;14.10;;;;;;;1.58;100.00;103248.59;10170180;28;20066;-72
2023/01/21 16:44:14;;;;;;;17.00;15.50;;;;;;;1.63;100.00;103240.78;10152407;28;20570;-72
2023/01/21 16:49:15;;;;;;;17.58;15.98;;;;;;;1.57;100.00;103230.78;10168164;28;20424;-72
2023/01/21 16:54:21;;;;;;;16.40;15.00;;;;;;;1.32;100.00;103228.47;10176821;28;20124;-72
2023/01/21 16:59:25;;;;;;;16.33;14.82;;;;;;;1.38;100.00;103238.50;10233214;28;20593;-73
2023/01/21 17:04:22;;;;;;;17.27;15.48;;;;;;;1.24;100.00;103236.72;10215377;28;20045;-72
2023/01/21 17:09:27;;;;;;;16.27;14.45;;;;;;;1.27;100.00;103236.31;10231141;28;20116;-72
2023/01/21 17:14:29;;;;;;;18.98;17.17;;;;;;;1.10;100.00;103235.75;10199036;28;20128;-72
2023/01/21 17:19:32;;;;;;;17.17;15.77;;;;;;;1.51;100.00;103242.31;10232066;28;20053;-72
2023/01/21 17:24:36;;;;;;;16.75;15.30;;;;;;;1.45;100.00;103246.66;10184075;28;20095;-72
2023/01/21 17:29:35;;;;;;;15.65;14.35;;;;;;;1.60;100.00;103249.25;10194324;28;20052;-72
2023/01/21 17:34:36;;;;;;;16.55;15.00;;;;;;;1.26;100.00;103248.16;10199550;28;20385;-72
2023/01/21 17:39:44;;;;;;;19.40;16.92;;;;;;;1.20;100.00;103238.13;10170669;28;20050;-72
2023/01/21 17:44:45;;;;;;;23.38;18.75;;;;;;;1.11;100.00;103248.19;10186217;28;20041;-72
2023/01/21 17:49:44;;;;;;;21.23;19.35;;;;;;;0.76;100.00;103260.66;10160545;28;20101;-72
2023/01/21 17:54:40;;;;;;;19.33;17.33;;;;;;;0.89;100.00;103252.75;10166539;28;20074;-72
2023/01/21 17:59:37;;;;;;;20.85;17.00;;;;;;;1.05;100.00;103246.28;10158604;28;20058;-72
2023/01/21 18:04:34;;;;;;;19.17;17.38;;;;;;;1.18;100.00;103240.16;10166522;28;20046;-72
2023/01/21 18:09:33;;;;;;;18.17;16.30;;;;;;;1.20;100.00;103252.44;10158685;28;20416;-72
2023/01/21 18:14:31;;;;;;;17.13;15.60;;;;;;;1.23;100.00;103245.81;10182371;28;20133;-72
2023/01/21 18:19:36;;;;;;;17.20;15.70;;;;;;;1.11;100.00;103247.38;10226680;28;20072;-72
2023/01/21 18:24:34;;;;;;;17.75;15.93;;;;;;;1.38;100.00;103254.69;10182740;28;20071;-72
2023/01/21 18:29:30;;;;;;;16.52;14.90;;;;;;;1.36;100.00;103262.13;10203529;28;20719;-72
2023/01/21 18:34:27;;;;;;;17.25;15.48;;;;;;;1.46;100.00;103270.72;10175580;28;20587;-72
2023/01/21 18:39:24;;;;;;;17.88;16.27;;;;;;;1.39;100.00;103261.75;10180584;28;20046;-72
2023/01/21 18:44:21;;;;;;;16.52;14.93;;;;;;;1.60;100.00;103270.81;10192253;28;20068;-72
2023/01/21 18:49:19;;;;;;;16.92;15.32;;;;;;;1.40;100.00;103263.41;10167590;28;20050;-72
2023/01/21 18:54:17;;;;;;;14.68;13.38;;;;;;;1.42;100.00;103255.97;10177011;28;20076;-72
2023/01/21 18:59:16;;;;;;;18.75;16.75;;;;;;;1.29;100.00;103255.84;10172628;28;20504;-72
2023/01/21 19:04:15;;;;;;;16.02;14.50;;;;;;;1.24;100.00;103252.88;10175445;28;20137;-72
2023/01/21 19:09:19;;;;;;;16.77;15.18;;;;;;;1.16;100.00;103244.91;10167913;28;20054;-72
2023/01/21 19:14:16;;;;;;;15.45;13.95;;;;;;;1.33;100.00;103240.94;10176504;28;20072;-72
2023/01/21 19:19:14;;;;;;;15.88;14.25;;;;;;;0.92;100.00;103228.13;10236268;28;20053;-72
2023/01/21 19:24:11;;;;;;;15.07;13.57;;;;;;;0.90;100.00;103224.78;10191008;28;20080;-71
2023/01/21 19:29:14;;;;;;;13.23;11.80;;;;;;;0.94;100.00;103247.63;10220765;28;20220;-72
2023/01/21 19:34:10;;;;;;;;;;;;;;;1.14;100.00;103230.81;10174522;28;20129;-72
2023/01/21 19:39:13;;;;;;;;;;;;;;;0.95;100.00;103229.59;10221220;28;19929;-72
2023/01/21 19:44:09;;;;;;;;;;;;;;;0.86;100.00;103228.91;10195817;28;19921;-72
2023/01/21 19:49:11;;;;;;;;;;;;;;;0.78;100.00;103229.00;10194239;28;20013;-72
2023/01/21 19:54:07;;;;;;;;;;;;;;;0.59;100.00;103228.59;10204437;28;20035;-72
2023/01/21 19:59:04;;;;;;;;;;;;;;;0.57;100.00;103219.84;10187582;28;19999;-72
2023/01/21 20:04:00;;;;;;;;;;;;;;;0.39;100.00;103225.63;10167690;28;20442;-72
2023/01/21 20:08:57;;;;;;;;;;;;;;;0.35;100.00;103220.84;10154894;28;20604;-72
2023/01/21 20:13:54;;;;;;;;;;;;;;;0.30;100.00;103228.63;10168778;28;20283;-72
2023/01/21 20:18:50;;;;;;;;;;;;;;;0.34;100.00;103225.38;10219807;28;20037;-72
2023/01/21 20:23:46;;;;;;;;;;;;;;;0.29;100.00;103232.34;10181506;28;19920;-71
2023/01/21 20:28:46;;;;;;;;;;;;;;;0.38;100.00;103239.31;10228736;28;20276;-72
2023/01/21 20:33:43;;;;;;;;;;;;;;;0.23;100.00;103241.16;10184997;28;19925;-72
2023/01/21 20:38:41;;;;;;;;;;;;;;;0.25;100.00;103252.59;10213581;28;19922;-71
2023/01/21 20:43:37;;;;;;;;;;;;;;;0.38;100.00;103248.22;10163047;28;19921;-71
2023/01/21 20:48:34;;;;;;;;;;;;;;;0.43;100.00;103250.34;10189628;28;19944;-71
2023/01/21 20:53:30;;;;;;;;;;;;;;;0.34;100.00;103235.31;10160745;28;20445;-72
2023/01/21 20:58:27;;;;;;;;;;;;;;;0.32;100.00;103243.56;10181577;28;20014;-71
2023/01/21 21:03:23;;;;;;;;;;;;;;;0.44;100.00;103246.63;10159026;28;20055;-71
2023/01/21 21:08:20;;;;;;;;;;;;;;;0.38;100.00;103240.13;10179136;28;20372;-71
2023/01/21 21:13:17;;;;;;;;;;;;;;;0.40;100.00;103239.97;10157194;28;19921;-71
2023/01/21 21:18:13;;;;;;;;;;;;;;;0.55;100.00;103238.06;10233272;28;19925;-71
2023/01/21 21:23:15;;;;;;;;;;;;;;;0.60;100.00;103246.44;10199977;28;19968;-71
2023/01/21 21:28:13;;;;;;;;;;;;;;;0.76;100.00;103244.50;10230756;28;19968;-71
2023/01/21 21:33:14;;;;;;;;;;;;;;;0.58;100.00;103251.16;10191993;28;19937;-71
2023/01/21 21:38:11;;;;;;;;;;;;;;;0.42;100.00;103237.91;10187645;28;20020;-70
2023/01/21 21:48:39;;;;;;;;;;;;;;;0.65;100.00;103231.53;10191136;28;20298;-73
2023/01/21 21:53:37;;;;;;;;;;;;;;;0.82;100.00;103228.44;10173113;28;19956;-71
2023/01/21 21:58:33;;;;;;;;;;;;;;;0.78;100.00;103245.16;10170746;28;19929;-71
2023/01/21 22:03:29;;;;;;;;;;;;;;;0.74;100.00;103246.56;10162769;28;19932;-71
2023/01/21 22:08:28;;;;;;;;;;;;;;;0.73;100.00;103245.72;10171258;28;19925;-71
2023/01/21 22:13:24;;;;;;;;;;;;;;;0.66;100.00;103244.00;10171589;28;19936;-71
2023/01/21 22:18:21;;;;;;;;;;;;;;;0.89;100.00;103244.66;10174130;28;20352;-71
2023/01/21 22:23:17;;;;;;;;;;;;;;;0.77;100.00;103240.81;10170037;28;20280;-71
2023/01/21 22:28:14;;;;;;;;;;;;;;;0.82;100.00;103230.28;10169142;28;20210;-71
2023/01/21 22:33:10;;;;;;;;;;;;;;;0.83;100.00;103226.56;10176484;28;20336;-71
2023/01/21 22:38:07;;;;;;;;;;;;;;;1.02;100.00;103234.03;10173882;28;19929;-71
2023/01/21 22:43:03;;;;;;;;;;;;;;;0.85;100.00;103251.44;10193696;28;19925;-70
2023/01/21 22:48:00;;;;;;;;;;;;;;;0.90;100.00;103246.31;10181006;28;20620;-69
2023/01/21 22:52:56;;;;;;;;;;;;;;;1.14;100.00;103247.81;10174904;28;19921;-70
2023/01/21 22:57:53;;;;;;;;;;;;;;;1.13;100.00;103235.38;10151636;28;19937;-70
2023/01/21 23:02:49;;;;;;;;;;;;;;;0.91;100.00;103231.84;10148198;28;20400;-69
2023/01/21 23:07:45;;;;;;;;;;;;;;;0.93;100.00;103235.19;10160160;28;19976;-69